sensor_id;sensor_type;location;lat;lon;timestamp;P1;durP1;ratioP1;P2;durP2;ratioP2
40793;SDS011;26502;51.886;15.604;2022-07-29T00:01:08;7.10;;;2.30;;
40793;SDS011;26502;51.886;15.604;2022-07-29T00:06:20;3.60;;;2.10;;
40793;SDS011;26502;51.886;15.604;2022-07-29T00:11:27;6.90;;;2.40;;
40793;SDS011;26502;51.886;15.604;2022-07-29T00:16:35;4.50;;;2.10;;
40793;SDS011;26502;51.886;15.604;2022-07-29T00:21:43;8.30;;;2.60;;
40793;SDS011;26502;51.886;15.604;2022-07-29T00:26:50;5.20;;;2.10;;
40793;SDS011;26502;51.886;15.604;2022-07-29T00:31:57;5.80;;;2.10;;
40793;SDS011;26502;51.886;15.604;2022-07-29T00:37:06;4.70;;;1.90;;
40793;SDS011;26502;51.886;15.604;2022-07-29T00:42:13;7.90;;;2.20;;
40793;SDS011;26502;51.886;15.604;2022-07-29T00:47:25;12.10;;;2.30;;
40793;SDS011;26502;51.886;15.604;2022-07-29T00:52:32;14.40;;;3.50;;
40793;SDS011;26502;51.886;15.604;2022-07-29T00:57:41;8.10;;;2.60;;
40793;SDS011;26502;51.886;15.604;2022-07-29T01:07:55;4.50;;;2.30;;
40793;SDS011;26502;51.886;15.604;2022-07-29T01:13:04;5.70;;;2.20;;
40793;SDS011;26502;51.886;15.604;2022-07-29T01:18:14;5.80;;;2.40;;
40793;SDS011;26502;51.886;15.604;2022-07-29T01:29:06;8.70;;;2.10;;
40793;SDS011;26502;51.886;15.604;2022-07-29T01:34:20;7.10;;;2.30;;
40793;SDS011;26502;51.886;15.604;2022-07-29T01:39:32;9.60;;;2.20;;
40793;SDS011;26502;51.886;15.604;2022-07-29T01:44:50;6.50;;;2.00;;
40793;SDS011;26502;51.886;15.604;2022-07-29T01:50:11;5.60;;;2.30;;
40793;SDS011;26502;51.886;15.604;2022-07-29T01:55:31;10.20;;;2.30;;
40793;SDS011;26502;51.886;15.604;2022-07-29T02:00:44;10.60;;;2.60;;
40793;SDS011;26502;51.886;15.604;2022-07-29T02:06:03;4.90;;;2.40;;
40793;SDS011;26502;51.886;15.604;2022-07-29T02:11:24;4.10;;;2.40;;
40793;SDS011;26502;51.886;15.604;2022-07-29T02:16:40;6.40;;;2.30;;
40793;SDS011;26502;51.886;15.604;2022-07-29T02:22:23;6.40;;;2.20;;
40793;SDS011;26502;51.886;15.604;2022-07-29T02:27:43;6.40;;;1.90;;
40793;SDS011;26502;51.886;15.604;2022-07-29T02:32:57;7.60;;;2.50;;
40793;SDS011;26502;51.886;15.604;2022-07-29T02:38:09;7.40;;;2.30;;
40793;SDS011;26502;51.886;15.604;2022-07-29T02:43:39;8.00;;;2.40;;
40793;SDS011;26502;51.886;15.604;2022-07-29T02:48:59;10.50;;;2.10;;
40793;SDS011;26502;51.886;15.604;2022-07-29T02:54:26;5.30;;;2.10;;
40793;SDS011;26502;51.886;15.604;2022-07-29T02:59:39;6.70;;;2.40;;
40793;SDS011;26502;51.886;15.604;2022-07-29T03:04:50;12.70;;;2.20;;
40793;SDS011;26502;51.886;15.604;2022-07-29T03:10:05;10.50;;;2.40;;
40793;SDS011;26502;51.886;15.604;2022-07-29T03:15:18;8.10;;;2.70;;
40793;SDS011;26502;51.886;15.604;2022-07-29T03:20:37;7.70;;;2.40;;
40793;SDS011;26502;51.886;15.604;2022-07-29T03:25:48;8.20;;;2.60;;
40793;SDS011;26502;51.886;15.604;2022-07-29T03:31:00;5.10;;;2.40;;
40793;SDS011;26502;51.886;15.604;2022-07-29T03:36:13;10.10;;;2.70;;
40793;SDS011;26502;51.886;15.604;2022-07-29T03:41:26;8.70;;;2.70;;
40793;SDS011;26502;51.886;15.604;2022-07-29T03:46:37;9.30;;;2.30;;
40793;SDS011;26502;51.886;15.604;2022-07-29T03:51:50;6.80;;;2.50;;
40793;SDS011;26502;51.886;15.604;2022-07-29T03:57:03;6.70;;;2.80;;
40793;SDS011;26502;51.886;15.604;2022-07-29T04:02:14;6.40;;;2.50;;
40793;SDS011;26502;51.886;15.604;2022-07-29T04:12:31;7.30;;;2.70;;
40793;SDS011;26502;51.886;15.604;2022-07-29T04:17:40;7.90;;;2.70;;
40793;SDS011;26502;51.886;15.604;2022-07-29T04:22:48;9.60;;;2.80;;
40793;SDS011;26502;51.886;15.604;2022-07-29T04:27:55;8.20;;;2.70;;
40793;SDS011;26502;51.886;15.604;2022-07-29T04:33:06;9.00;;;3.00;;
40793;SDS011;26502;51.886;15.604;2022-07-29T04:38:14;7.70;;;2.40;;
40793;SDS011;26502;51.886;15.604;2022-07-29T04:43:22;6.70;;;2.70;;
40793;SDS011;26502;51.886;15.604;2022-07-29T04:48:30;6.10;;;2.90;;
40793;SDS011;26502;51.886;15.604;2022-07-29T04:53:38;6.40;;;2.50;;
40793;SDS011;26502;51.886;15.604;2022-07-29T04:58:45;8.10;;;2.40;;
40793;SDS011;26502;51.886;15.604;2022-07-29T05:03:53;12.10;;;2.80;;
40793;SDS011;26502;51.886;15.604;2022-07-29T05:09:00;10.90;;;2.80;;
40793;SDS011;26502;51.886;15.604;2022-07-29T05:14:08;6.50;;;2.40;;
40793;SDS011;26502;51.886;15.604;2022-07-29T05:19:15;6.00;;;2.10;;
40793;SDS011;26502;51.886;15.604;2022-07-29T05:24:24;8.20;;;2.50;;
40793;SDS011;26502;51.886;15.604;2022-07-29T05:29:34;7.00;;;2.20;;
40793;SDS011;26502;51.886;15.604;2022-07-29T05:34:42;11.40;;;2.80;;
40793;SDS011;26502;51.886;15.604;2022-07-29T05:39:49;7.70;;;2.40;;
40793;SDS011;26502;51.886;15.604;2022-07-29T05:44:57;5.20;;;2.70;;
40793;SDS011;26502;51.886;15.604;2022-07-29T05:50:06;8.10;;;2.80;;
40793;SDS011;26502;51.886;15.604;2022-07-29T05:55:16;11.40;;;2.80;;
40793;SDS011;26502;51.886;15.604;2022-07-29T06:00:23;13.70;;;2.70;;
40793;SDS011;26502;51.886;15.604;2022-07-29T06:05:30;7.00;;;2.50;;
40793;SDS011;26502;51.886;15.604;2022-07-29T06:10:37;12.10;;;3.20;;
40793;SDS011;26502;51.886;15.604;2022-07-29T06:15:44;7.50;;;2.60;;
40793;SDS011;26502;51.886;15.604;2022-07-29T06:20:52;8.00;;;2.80;;
40793;SDS011;26502;51.886;15.604;2022-07-29T06:26:00;6.70;;;2.80;;
40793;SDS011;26502;51.886;15.604;2022-07-29T06:31:07;9.30;;;3.10;;
40793;SDS011;26502;51.886;15.604;2022-07-29T06:36:19;7.70;;;3.10;;
40793;SDS011;26502;51.886;15.604;2022-07-29T06:41:25;7.50;;;2.90;;
40793;SDS011;26502;51.886;15.604;2022-07-29T06:46:33;10.40;;;3.30;;
40793;SDS011;26502;51.886;15.604;2022-07-29T06:51:41;7.10;;;2.80;;
40793;SDS011;26502;51.886;15.604;2022-07-29T06:56:51;8.20;;;3.50;;
40793;SDS011;26502;51.886;15.604;2022-07-29T07:01:58;9.60;;;3.50;;
40793;SDS011;26502;51.886;15.604;2022-07-29T07:07:06;9.00;;;3.70;;
40793;SDS011;26502;51.886;15.604;2022-07-29T07:17:20;11.70;;;3.50;;
40793;SDS011;26502;51.886;15.604;2022-07-29T07:22:27;7.40;;;3.20;;
40793;SDS011;26502;51.886;15.604;2022-07-29T07:27:35;7.90;;;2.90;;
40793;SDS011;26502;51.886;15.604;2022-07-29T07:32:42;7.30;;;3.10;;
40793;SDS011;26502;51.886;15.604;2022-07-29T07:37:51;10.90;;;3.40;;
40793;SDS011;26502;51.886;15.604;2022-07-29T07:42:58;5.20;;;3.30;;
40793;SDS011;26502;51.886;15.604;2022-07-29T07:48:06;10.00;;;3.10;;
40793;SDS011;26502;51.886;15.604;2022-07-29T07:54:42;9.00;;;2.90;;
40793;SDS011;26502;51.886;15.604;2022-07-29T07:59:49;5.60;;;2.30;;
40793;SDS011;26502;51.886;15.604;2022-07-29T08:04:56;8.60;;;2.70;;
40793;SDS011;26502;51.886;15.604;2022-07-29T08:10:04;10.50;;;2.60;;
40793;SDS011;26502;51.886;15.604;2022-07-29T08:15:12;8.10;;;2.50;;
40793;SDS011;26502;51.886;15.604;2022-07-29T08:20:21;4.10;;;2.40;;
40793;SDS011;26502;51.886;15.604;2022-07-29T08:25:30;8.70;;;2.80;;
40793;SDS011;26502;51.886;15.604;2022-07-29T08:30:40;7.00;;;2.10;;
40793;SDS011;26502;51.886;15.604;2022-07-29T08:36:04;11.60;;;2.60;;
40793;SDS011;26502;51.886;15.604;2022-07-29T08:41:14;7.20;;;2.20;;
40793;SDS011;26502;51.886;15.604;2022-07-29T08:46:23;5.70;;;2.60;;
40793;SDS011;26502;51.886;15.604;2022-07-29T08:51:50;3.50;;;2.00;;
40793;SDS011;26502;51.886;15.604;2022-07-29T08:56:58;9.30;;;2.30;;
40793;SDS011;26502;51.886;15.604;2022-07-29T09:02:15;5.10;;;1.90;;
40793;SDS011;26502;51.886;15.604;2022-07-29T09:07:45;5.30;;;2.10;;
40793;SDS011;26502;51.886;15.604;2022-07-29T09:13:02;4.50;;;1.80;;
40793;SDS011;26502;51.886;15.604;2022-07-29T09:18:10;11.70;;;2.10;;
40793;SDS011;26502;51.886;15.604;2022-07-29T09:23:36;6.60;;;2.40;;
40793;SDS011;26502;51.886;15.604;2022-07-29T09:29:09;3.60;;;2.20;;
40793;SDS011;26502;51.886;15.604;2022-07-29T09:34:21;8.70;;;2.30;;
40793;SDS011;26502;51.886;15.604;2022-07-29T09:39:30;8.90;;;2.20;;
40793;SDS011;26502;51.886;15.604;2022-07-29T09:44:44;6.70;;;2.40;;
40793;SDS011;26502;51.886;15.604;2022-07-29T09:49:53;11.80;;;2.40;;
40793;SDS011;26502;51.886;15.604;2022-07-29T09:55:07;3.70;;;2.10;;
40793;SDS011;26502;51.886;15.604;2022-07-29T10:00:17;8.80;;;2.40;;
40793;SDS011;26502;51.886;15.604;2022-07-29T10:05:26;7.40;;;2.50;;
40793;SDS011;26502;51.886;15.604;2022-07-29T10:15:40;8.00;;;2.30;;
40793;SDS011;26502;51.886;15.604;2022-07-29T10:20:50;6.80;;;2.40;;
40793;SDS011;26502;51.886;15.604;2022-07-29T10:25:57;3.20;;;1.90;;
40793;SDS011;26502;51.886;15.604;2022-07-29T10:31:06;6.50;;;2.20;;
40793;SDS011;26502;51.886;15.604;2022-07-29T10:42:02;5.50;;;1.70;;
40793;SDS011;26502;51.886;15.604;2022-07-29T10:47:23;7.40;;;2.10;;
40793;SDS011;26502;51.886;15.604;2022-07-29T10:58:15;7.50;;;2.30;;
40793;SDS011;26502;51.886;15.604;2022-07-29T11:31:37;7.30;;;1.90;;
40793;SDS011;26502;51.886;15.604;2022-07-29T11:37:21;2.20;;;1.40;;
40793;SDS011;26502;51.886;15.604;2022-07-29T11:42:45;3.80;;;1.90;;
40793;SDS011;26502;51.886;15.604;2022-07-29T11:47:56;4.10;;;2.10;;
40793;SDS011;26502;51.886;15.604;2022-07-29T11:53:11;5.00;;;1.70;;
40793;SDS011;26502;51.886;15.604;2022-07-29T11:58:22;6.70;;;1.80;;
40793;SDS011;26502;51.886;15.604;2022-07-29T12:03:39;13.80;;;1.70;;
40793;SDS011;26502;51.886;15.604;2022-07-29T12:09:08;3.30;;;1.70;;
40793;SDS011;26502;51.886;15.604;2022-07-29T12:14:36;8.30;;;2.10;;
40793;SDS011;26502;51.886;15.604;2022-07-29T12:19:56;6.10;;;1.50;;
40793;SDS011;26502;51.886;15.604;2022-07-29T12:25:08;8.10;;;2.10;;
40793;SDS011;26502;51.886;15.604;2022-07-29T12:30:19;7.00;;;1.60;;
40793;SDS011;26502;51.886;15.604;2022-07-29T12:35:27;9.40;;;1.80;;
40793;SDS011;26502;51.886;15.604;2022-07-29T12:40:34;5.80;;;1.70;;
40793;SDS011;26502;51.886;15.604;2022-07-29T12:45:44;2.80;;;2.00;;
40793;SDS011;26502;51.886;15.604;2022-07-29T12:50:59;6.70;;;1.70;;
40793;SDS011;26502;51.886;15.604;2022-07-29T12:56:09;5.70;;;1.60;;
40793;SDS011;26502;51.886;15.604;2022-07-29T13:01:23;5.10;;;1.60;;
40793;SDS011;26502;51.886;15.604;2022-07-29T13:06:32;8.10;;;1.70;;
40793;SDS011;26502;51.886;15.604;2022-07-29T13:11:42;9.40;;;1.70;;
40793;SDS011;26502;51.886;15.604;2022-07-29T13:17:02;4.20;;;1.60;;
40793;SDS011;26502;51.886;15.604;2022-07-29T13:22:12;2.00;;;1.70;;
40793;SDS011;26502;51.886;15.604;2022-07-29T13:27:21;6.60;;;1.80;;
40793;SDS011;26502;51.886;15.604;2022-07-29T13:32:30;7.60;;;1.60;;
40793;SDS011;26502;51.886;15.604;2022-07-29T13:37:38;3.90;;;2.40;;
40793;SDS011;26502;51.886;15.604;2022-07-29T13:42:47;6.50;;;1.70;;
40793;SDS011;26502;51.886;15.604;2022-07-29T13:47:55;13.20;;;1.90;;
40793;SDS011;26502;51.886;15.604;2022-07-29T13:53:02;5.00;;;1.90;;
40793;SDS011;26502;51.886;15.604;2022-07-29T13:58:09;18.50;;;2.50;;
40793;SDS011;26502;51.886;15.604;2022-07-29T14:03:17;6.60;;;1.60;;
40793;SDS011;26502;51.886;15.604;2022-07-29T14:08:24;6.90;;;1.80;;
40793;SDS011;26502;51.886;15.604;2022-07-29T14:13:32;6.30;;;1.80;;
40793;SDS011;26502;51.886;15.604;2022-07-29T14:18:40;7.10;;;1.90;;
40793;SDS011;26502;51.886;15.604;2022-07-29T14:23:47;8.20;;;1.90;;
40793;SDS011;26502;51.886;15.604;2022-07-29T14:28:55;6.30;;;2.10;;
40793;SDS011;26502;51.886;15.604;2022-07-29T14:34:03;5.50;;;1.80;;
40793;SDS011;26502;51.886;15.604;2022-07-29T14:39:10;3.80;;;1.80;;
40793;SDS011;26502;51.886;15.604;2022-07-29T14:44:19;3.90;;;1.50;;
40793;SDS011;26502;51.886;15.604;2022-07-29T14:49:28;5.00;;;1.40;;
40793;SDS011;26502;51.886;15.604;2022-07-29T14:54:35;4.70;;;1.60;;
40793;SDS011;26502;51.886;15.604;2022-07-29T14:59:42;4.80;;;2.10;;
40793;SDS011;26502;51.886;15.604;2022-07-29T15:09:55;9.80;;;1.80;;
40793;SDS011;26502;51.886;15.604;2022-07-29T15:15:08;6.90;;;1.80;;
40793;SDS011;26502;51.886;15.604;2022-07-29T15:20:19;12.20;;;2.10;;
40793;SDS011;26502;51.886;15.604;2022-07-29T15:25:29;6.80;;;2.20;;
40793;SDS011;26502;51.886;15.604;2022-07-29T15:30:40;13.20;;;1.50;;
40793;SDS011;26502;51.886;15.604;2022-07-29T15:35:47;7.40;;;1.50;;
40793;SDS011;26502;51.886;15.604;2022-07-29T15:40:54;4.40;;;1.70;;
40793;SDS011;26502;51.886;15.604;2022-07-29T15:46:01;5.20;;;1.70;;
40793;SDS011;26502;51.886;15.604;2022-07-29T15:51:26;7.30;;;1.70;;
40793;SDS011;26502;51.886;15.604;2022-07-29T15:56:33;6.20;;;2.00;;
40793;SDS011;26502;51.886;15.604;2022-07-29T16:01:41;6.70;;;2.30;;
40793;SDS011;26502;51.886;15.604;2022-07-29T16:06:48;6.40;;;1.60;;
40793;SDS011;26502;51.886;15.604;2022-07-29T16:11:57;5.90;;;1.80;;
40793;SDS011;26502;51.886;15.604;2022-07-29T16:17:04;6.00;;;1.80;;
40793;SDS011;26502;51.886;15.604;2022-07-29T16:22:12;10.70;;;2.00;;
40793;SDS011;26502;51.886;15.604;2022-07-29T16:27:20;6.90;;;2.00;;
40793;SDS011;26502;51.886;15.604;2022-07-29T16:32:37;4.80;;;1.80;;
40793;SDS011;26502;51.886;15.604;2022-07-29T16:37:44;8.50;;;3.00;;
40793;SDS011;26502;51.886;15.604;2022-07-29T16:42:51;8.90;;;1.90;;
40793;SDS011;26502;51.886;15.604;2022-07-29T16:47:59;5.40;;;2.00;;
40793;SDS011;26502;51.886;15.604;2022-07-29T16:53:06;4.00;;;2.00;;
40793;SDS011;26502;51.886;15.604;2022-07-29T16:58:13;3.00;;;2.00;;
40793;SDS011;26502;51.886;15.604;2022-07-29T17:03:23;9.80;;;2.10;;
40793;SDS011;26502;51.886;15.604;2022-07-29T17:08:30;2.50;;;2.10;;
40793;SDS011;26502;51.886;15.604;2022-07-29T17:13:37;6.50;;;1.80;;
40793;SDS011;26502;51.886;15.604;2022-07-29T17:18:46;5.10;;;2.30;;
40793;SDS011;26502;51.886;15.604;2022-07-29T17:23:53;4.90;;;1.80;;
40793;SDS011;26502;51.886;15.604;2022-07-29T17:29:01;5.00;;;1.70;;
40793;SDS011;26502;51.886;15.604;2022-07-29T17:39:14;6.80;;;2.00;;
40793;SDS011;26502;51.886;15.604;2022-07-29T17:44:21;11.10;;;1.90;;
40793;SDS011;26502;51.886;15.604;2022-07-29T17:49:29;11.30;;;2.30;;
40793;SDS011;26502;51.886;15.604;2022-07-29T17:54:36;5.70;;;2.20;;
40793;SDS011;26502;51.886;15.604;2022-07-29T17:59:43;11.00;;;2.10;;
40793;SDS011;26502;51.886;15.604;2022-07-29T18:04:50;4.90;;;1.90;;
40793;SDS011;26502;51.886;15.604;2022-07-29T18:09:58;7.70;;;2.20;;
40793;SDS011;26502;51.886;15.604;2022-07-29T18:15:08;3.90;;;1.80;;
40793;SDS011;26502;51.886;15.604;2022-07-29T18:20:17;4.40;;;2.10;;
40793;SDS011;26502;51.886;15.604;2022-07-29T18:25:25;10.50;;;2.00;;
40793;SDS011;26502;51.886;15.604;2022-07-29T18:35:40;7.60;;;1.90;;
40793;SDS011;26502;51.886;15.604;2022-07-29T18:45:53;8.30;;;2.20;;
40793;SDS011;26502;51.886;15.604;2022-07-29T18:51:00;4.50;;;1.90;;
40793;SDS011;26502;51.886;15.604;2022-07-29T18:56:08;5.80;;;1.90;;
40793;SDS011;26502;51.886;15.604;2022-07-29T19:01:15;9.70;;;2.20;;
40793;SDS011;26502;51.886;15.604;2022-07-29T19:06:22;4.70;;;2.00;;
40793;SDS011;26502;51.886;15.604;2022-07-29T19:11:29;7.00;;;1.70;;
40793;SDS011;26502;51.886;15.604;2022-07-29T19:16:38;3.20;;;1.90;;
40793;SDS011;26502;51.886;15.604;2022-07-29T19:26:51;3.80;;;1.90;;
40793;SDS011;26502;51.886;15.604;2022-07-29T19:31:59;6.30;;;2.00;;
40793;SDS011;26502;51.886;15.604;2022-07-29T19:37:06;7.60;;;1.80;;
40793;SDS011;26502;51.886;15.604;2022-07-29T19:42:14;4.70;;;1.70;;
40793;SDS011;26502;51.886;15.604;2022-07-29T19:47:21;3.60;;;1.90;;
40793;SDS011;26502;51.886;15.604;2022-07-29T19:52:29;5.10;;;2.00;;
40793;SDS011;26502;51.886;15.604;2022-07-29T19:57:36;4.90;;;2.10;;
40793;SDS011;26502;51.886;15.604;2022-07-29T20:02:44;8.50;;;1.90;;
40793;SDS011;26502;51.886;15.604;2022-07-29T20:07:51;4.10;;;2.10;;
40793;SDS011;26502;51.886;15.604;2022-07-29T20:12:59;4.30;;;1.90;;
40793;SDS011;26502;51.886;15.604;2022-07-29T20:18:06;4.80;;;2.00;;
40793;SDS011;26502;51.886;15.604;2022-07-29T20:23:15;4.70;;;1.80;;
40793;SDS011;26502;51.886;15.604;2022-07-29T20:28:24;5.40;;;1.70;;
40793;SDS011;26502;51.886;15.604;2022-07-29T20:33:33;5.30;;;1.80;;
40793;SDS011;26502;51.886;15.604;2022-07-29T20:38:41;7.30;;;1.90;;
40793;SDS011;26502;51.886;15.604;2022-07-29T20:43:49;4.70;;;1.80;;
40793;SDS011;26502;51.886;15.604;2022-07-29T20:48:56;9.20;;;2.20;;
40793;SDS011;26502;51.886;15.604;2022-07-29T20:54:04;7.30;;;1.70;;
40793;SDS011;26502;51.886;15.604;2022-07-29T20:59:12;10.50;;;1.90;;
40793;SDS011;26502;51.886;15.604;2022-07-29T21:04:19;7.70;;;2.00;;
40793;SDS011;26502;51.886;15.604;2022-07-29T21:09:26;6.20;;;2.20;;
40793;SDS011;26502;51.886;15.604;2022-07-29T21:14:34;6.80;;;2.20;;
40793;SDS011;26502;51.886;15.604;2022-07-29T21:19:57;3.80;;;2.00;;
40793;SDS011;26502;51.886;15.604;2022-07-29T21:25:06;8.00;;;2.20;;
40793;SDS011;26502;51.886;15.604;2022-07-29T21:30:15;5.00;;;1.80;;
40793;SDS011;26502;51.886;15.604;2022-07-29T21:35:22;7.70;;;1.90;;
40793;SDS011;26502;51.886;15.604;2022-07-29T21:40:30;12.90;;;2.00;;
40793;SDS011;26502;51.886;15.604;2022-07-29T21:45:38;10.90;;;2.10;;
40793;SDS011;26502;51.886;15.604;2022-07-29T21:55:52;3.70;;;1.80;;
40793;SDS011;26502;51.886;15.604;2022-07-29T22:00:59;5.50;;;2.10;;
40793;SDS011;26502;51.886;15.604;2022-07-29T22:06:07;11.40;;;2.00;;
40793;SDS011;26502;51.886;15.604;2022-07-29T22:11:14;2.80;;;1.90;;
40793;SDS011;26502;51.886;15.604;2022-07-29T22:16:22;4.30;;;2.20;;
40793;SDS011;26502;51.886;15.604;2022-07-29T22:21:29;11.90;;;2.30;;
40793;SDS011;26502;51.886;15.604;2022-07-29T22:26:36;8.50;;;2.70;;
40793;SDS011;26502;51.886;15.604;2022-07-29T22:31:44;6.50;;;2.50;;
40793;SDS011;26502;51.886;15.604;2022-07-29T22:36:51;10.40;;;2.20;;
40793;SDS011;26502;51.886;15.604;2022-07-29T22:41:58;10.00;;;2.80;;
40793;SDS011;26502;51.886;15.604;2022-07-29T22:47:06;12.50;;;2.40;;
40793;SDS011;26502;51.886;15.604;2022-07-29T22:52:13;6.50;;;2.50;;
40793;SDS011;26502;51.886;15.604;2022-07-29T22:57:20;6.40;;;2.10;;
40793;SDS011;26502;51.886;15.604;2022-07-29T23:02:27;3.50;;;2.20;;
40793;SDS011;26502;51.886;15.604;2022-07-29T23:07:34;5.10;;;2.40;;
40793;SDS011;26502;51.886;15.604;2022-07-29T23:12:41;4.90;;;2.00;;
40793;SDS011;26502;51.886;15.604;2022-07-29T23:17:49;5.90;;;1.90;;
40793;SDS011;26502;51.886;15.604;2022-07-29T23:22:56;6.20;;;1.90;;
40793;SDS011;26502;51.886;15.604;2022-07-29T23:28:05;7.80;;;2.00;;
40793;SDS011;26502;51.886;15.604;2022-07-29T23:33:15;3.60;;;2.20;;
40793;SDS011;26502;51.886;15.604;2022-07-29T23:38:22;2.70;;;1.80;;
40793;SDS011;26502;51.886;15.604;2022-07-29T23:43:31;5.00;;;1.90;;
40793;SDS011;26502;51.886;15.604;2022-07-29T23:48:40;6.90;;;2.00;;
40793;SDS011;26502;51.886;15.604;2022-07-29T23:53:48;4.30;;;1.60;;
40793;SDS011;26502;51.886;15.604;2022-07-29T23:58:56;3.40;;;2.20;;
